Time;durP1;ratioP1;P1;durP2;ratioP2;P2;SDS_P1;SDS_P2;PMS_P1;PMS_P2;Temp;Humidity;BMP_temperature;BMP_pressure;BME280_temperature;BME280_humidity;BME280_pressure;Samples;Min_cycle;Max_cycle;Signal;HPM_P1;HPM_P2
2022/08/12 00:44:29;;;;;;;;;;;17.40;99.90;;;;;;5001289;28;19936;-81
2022/08/12 00:46:59;;;;;;;;;;;17.40;99.90;;;;;;5000731;28;20287;-81
2022/08/12 00:49:26;;;;;;;;;;;17.40;99.90;;;;;;5015590;28;19964;-82
2022/08/12 00:52:08;;;;;;;;;;;17.40;99.90;;;;;;5007294;28;19925;-81
2022/08/12 00:54:42;;;;;;;;;;;17.40;99.90;;;;;;4994673;28;19932;-81
2022/08/12 00:57:09;;;;;;;;;;;17.40;99.90;;;;;;5018056;28;19920;-81
2022/08/12 00:59:35;;;;;;;;;;;17.40;99.90;;;;;;4993887;28;19929;-82
2022/08/12 01:02:03;;;;;;;;;;;17.40;99.90;;;;;;4992908;28;19925;-83
2022/08/12 01:12:44;;;;;;;;;;;17.40;99.90;;;;;;5002234;28;19935;-80
2022/08/12 01:15:11;;;;;;;;;;;17.40;99.90;;;;;;5010656;28;19925;-82
2022/08/12 01:17:40;;;;;;;;;;;17.30;99.90;;;;;;4997335;28;20346;-80
2022/08/12 01:20:07;;;;;;;;;;;17.40;99.90;;;;;;5016781;28;19921;-80
2022/08/12 01:22:40;;;;;;;;;;;17.40;99.90;;;;;;4992994;28;20409;-80
2022/08/12 01:25:17;;;;;;;;;;;17.40;99.90;;;;;;5012874;28;20402;-81
2022/08/12 01:27:43;;;;;;;;;;;17.40;99.90;;;;;;5013074;28;20317;-80
2022/08/12 01:30:10;;;;;;;;;;;17.30;99.90;;;;;;5015770;28;19936;-84
2022/08/12 01:32:37;;;;;;;;;;;17.30;99.90;;;;;;5009311;28;19928;-80
2022/08/12 01:35:04;;;;;;;;;;;17.30;99.90;;;;;;4992767;28;19928;-80
2022/08/12 01:37:32;;;;;;;;;;;17.30;99.90;;;;;;5009792;28;19929;-80
2022/08/12 01:39:59;;;;;;;;;;;17.20;99.90;;;;;;5007945;28;19936;-81
2022/08/12 01:42:26;;;;;;;;;;;17.30;99.90;;;;;;5009444;28;19925;-80
2022/08/12 01:44:53;;;;;;;;;;;17.20;99.90;;;;;;5025835;28;20003;-80
2022/08/12 01:47:24;;;;;;;;;;;17.20;99.90;;;;;;5027035;28;20008;-80
2022/08/12 01:50:08;;;;;;;;;;;17.20;99.90;;;;;;5008114;28;20012;-80
2022/08/12 01:52:37;;;;;;;;;;;17.20;99.90;;;;;;5023781;28;19925;-79
2022/08/12 01:55:05;;;;;;;;;;;17.20;99.90;;;;;;5025414;28;19921;-80
2022/08/12 01:57:52;;;;;;;;;;;17.20;99.90;;;;;;4994909;28;19924;-80
2022/08/12 02:00:18;;;;;;;;;;;17.20;99.90;;;;;;5012287;28;19925;-80
2022/08/12 02:03:02;;;;;;;;;;;17.10;99.90;;;;;;5015896;28;19952;-80
2022/08/12 02:11:17;;;;;;;;;;;17.10;99.90;;;;;;5006800;28;20317;-80
2022/08/12 02:14:02;;;;;;;;;;;17.10;99.90;;;;;;4983496;28;20345;-80
2022/08/12 02:16:38;;;;;;;;;;;17.00;99.90;;;;;;5004287;28;19928;-80
2022/08/12 02:19:15;;;;;;;;;;;17.00;99.90;;;;;;5010572;28;19951;-80
2022/08/12 02:21:46;;;;;;;;;;;17.00;99.90;;;;;;4989941;28;19990;-80
2022/08/12 02:24:14;;;;;;;;;;;16.90;99.90;;;;;;5020183;28;20213;-79
2022/08/12 02:26:41;;;;;;;;;;;16.90;99.90;;;;;;5008706;28;19929;-79
2022/08/12 02:29:07;;;;;;;;;;;17.10;99.90;;;;;;4988833;28;20275;-79
2022/08/12 02:31:33;;;;;;;;;;;16.80;99.90;;;;;;5025088;28;19932;-79
2022/08/12 02:34:00;;;;;;;;;;;16.80;99.90;;;;;;5005449;28;19965;-80
2022/08/12 02:36:26;;;;;;;;;;;16.80;99.90;;;;;;4981820;28;19964;-80
2022/08/12 02:38:52;;;;;;;;;;;16.70;99.90;;;;;;4991672;28;20263;-80
2022/08/12 02:41:20;;;;;;;;;;;16.70;99.90;;;;;;5002428;28;20425;-80
2022/08/12 02:43:49;;;;;;;;;;;16.70;99.90;;;;;;5023375;28;19920;-81
2022/08/12 02:46:17;;;;;;;;;;;16.60;99.90;;;;;;5005062;28;20016;-80
2022/08/12 02:48:46;;;;;;;;;;;16.60;99.90;;;;;;5008515;28;19928;-80
2022/08/12 02:51:15;;;;;;;;;;;16.70;99.90;;;;;;5004624;28;20642;-80
2022/08/12 02:53:43;;;;;;;;;;;16.60;99.90;;;;;;4990683;28;19921;-80
2022/08/12 02:56:11;;;;;;;;;;;16.60;99.90;;;;;;5010291;28;20039;-79
2022/08/12 02:58:37;;;;;;;;;;;16.60;99.90;;;;;;5028704;28;20558;-79
2022/08/12 03:01:04;;;;;;;;;;;16.60;99.90;;;;;;5008249;28;19929;-80
2022/08/12 03:03:31;;;;;;;;;;;16.50;99.90;;;;;;4995554;28;19992;-79
2022/08/12 03:06:05;;;;;;;;;;;16.50;99.90;;;;;;5012170;28;19927;-79
2022/08/12 03:08:34;;;;;;;;;;;16.50;99.90;;;;;;5029393;28;19921;-79
2022/08/12 03:11:08;;;;;;;;;;;16.50;99.90;;;;;;5011824;28;20357;-79
2022/08/12 03:13:35;;;;;;;;;;;16.40;99.90;;;;;;5013311;28;19920;-79
2022/08/12 03:16:00;;;;;;;;;;;16.40;99.90;;;;;;5030965;28;19921;-78
2022/08/12 03:18:30;;;;;;;;;;;16.60;99.90;;;;;;5012620;28;19935;-78
2022/08/12 03:20:57;;;;;;;;;;;16.40;99.90;;;;;;4992308;28;19929;-79
2022/08/12 03:23:23;;;;;;;;;;;16.40;99.90;;;;;;4992513;28;19922;-79
2022/08/12 03:25:50;;;;;;;;;;;16.40;99.90;;;;;;4995250;28;19921;-79
2022/08/12 03:28:49;;;;;;;;;;;16.40;99.90;;;;;;5028202;28;19975;-79
2022/08/12 03:31:07;;;;;;;;;;;16.50;99.90;;;;;;5010225;28;20019;-78
2022/08/12 03:33:34;;;;;;;;;;;16.40;99.90;;;;;;5027033;28;20463;-79
2022/08/12 03:36:01;;;;;;;;;;;16.40;99.90;;;;;;5011461;28;19975;-80
2022/08/12 03:38:28;;;;;;;;;;;16.40;99.90;;;;;;5027516;28;19963;-78
2022/08/12 04:00:22;;;;;;;;;;;16.50;99.90;;;;;;5009778;28;19952;-79
2022/08/12 04:02:58;;;;;;;;;;;16.30;99.90;;;;;;5027965;28;19928;-79
2022/08/12 04:05:24;;;;;;;;;;;16.30;99.90;;;;;;5011154;28;19936;-78
2022/08/12 04:07:50;;;;;;;;;;;16.30;99.90;;;;;;5010132;28;20404;-78
2022/08/12 04:10:16;;;;;;;;;;;16.40;99.90;;;;;;5009272;28;19920;-79
2022/08/12 04:15:28;;;;;;;;;;;16.30;99.90;;;;;;5011255;28;20374;-78
2022/08/12 04:17:54;;;;;;;;;;;16.30;99.90;;;;;;4994422;28;19932;-78
2022/08/12 04:20:21;;;;;;;;;;;16.20;99.90;;;;;;5017072;28;19925;-79
2022/08/12 04:22:46;;;;;;;;;;;16.30;99.90;;;;;;5009323;28;19921;-79
2022/08/12 04:25:12;;;;;;;;;;;16.30;99.90;;;;;;5013403;28;20015;-79
2022/08/12 04:27:38;;;;;;;;;;;16.30;99.90;;;;;;4996219;28;20325;-78
2022/08/12 04:30:06;;;;;;;;;;;16.30;99.90;;;;;;5018910;28;19925;-79
2022/08/12 04:32:33;;;;;;;;;;;16.30;99.90;;;;;;5032872;28;19940;-78
2022/08/12 04:34:59;;;;;;;;;;;16.30;99.90;;;;;;5027701;28;19928;-79
2022/08/12 04:37:24;;;;;;;;;;;16.30;99.90;;;;;;4999326;28;19925;-79
2022/08/12 04:39:50;;;;;;;;;;;16.30;99.90;;;;;;5015888;28;19932;-79
2022/08/12 04:42:16;;;;;;;;;;;16.30;99.90;;;;;;5012763;28;20378;-79
2022/08/12 04:44:42;;;;;;;;;;;16.30;99.90;;;;;;5012332;28;19921;-79
2022/08/12 04:47:18;;;;;;;;;;;16.30;99.90;;;;;;5023393;28;20406;-79
2022/08/12 04:49:44;;;;;;;;;;;16.40;99.90;;;;;;4990377;28;19921;-78
2022/08/12 04:52:10;;;;;;;;;;;16.50;99.90;;;;;;5021840;28;20294;-78
2022/08/12 04:54:36;;;;;;;;;;;16.70;99.90;;;;;;5024152;28;19940;-79
2022/08/12 04:57:02;;;;;;;;;;;16.80;99.90;;;;;;4998614;28;20064;-79
2022/08/12 04:59:29;;;;;;;;;;;16.90;99.90;;;;;;5022270;28;20371;-79
2022/08/12 05:01:56;;;;;;;;;;;16.90;99.90;;;;;;4988668;28;19929;-79
2022/08/12 05:04:24;;;;;;;;;;;17.00;99.90;;;;;;5011876;28;19920;-79
2022/08/12 05:06:50;;;;;;;;;;;17.00;99.90;;;;;;5010940;28;20385;-79
2022/08/12 05:09:15;;;;;;;;;;;17.00;99.90;;;;;;5010059;28;19929;-79
2022/08/12 05:11:41;;;;;;;;;;;17.10;99.90;;;;;;5010071;28;19921;-79
2022/08/12 05:14:06;;;;;;;;;;;17.40;99.90;;;;;;5017380;28;19932;-79
2022/08/12 05:16:34;;;;;;;;;;;18.30;99.90;;;;;;5004327;28;19929;-79
2022/08/12 05:18:59;;;;;;;;;;;19.30;99.90;;;;;;4994387;28;19929;-79
2022/08/12 05:21:25;;;;;;;;;;;19.80;99.90;;;;;;4994426;28;19936;-79
2022/08/12 05:23:51;;;;;;;;;;;19.60;99.90;;;;;;5024838;28;19927;-79
2022/08/12 05:26:16;;;;;;;;;;;19.30;99.90;;;;;;5007517;28;19931;-80
2022/08/12 05:28:42;;;;;;;;;;;19.00;99.90;;;;;;5008336;28;20028;-80
2022/08/12 05:31:07;;;;;;;;;;;19.00;99.90;;;;;;5017926;28;19920;-80
2022/08/12 05:33:37;;;;;;;;;;;18.60;99.90;;;;;;5006967;28;19921;-81
2022/08/12 05:36:06;;;;;;;;;;;18.40;99.90;;;;;;5009397;28;19921;-80
2022/08/12 05:41:19;;;;;;;;;;;18.20;99.90;;;;;;5006086;28;19929;-80
2022/08/12 05:43:45;;;;;;;;;;;18.10;99.90;;;;;;5006384;28;19924;-79
2022/08/12 05:46:11;;;;;;;;;;;18.10;99.90;;;;;;5011118;28;19982;-80
2022/08/12 05:48:36;;;;;;;;;;;18.10;99.90;;;;;;5013784;28;19921;-80
2022/08/12 05:51:02;;;;;;;;;;;18.00;99.90;;;;;;5004649;28;19920;-80
2022/08/12 05:53:27;;;;;;;;;;;18.10;99.90;;;;;;5001803;28;20384;-80
2022/08/12 05:55:53;;;;;;;;;;;18.10;99.90;;;;;;5004023;28;20335;-80
2022/08/12 05:58:20;;;;;;;;;;;18.20;99.90;;;;;;5007343;28;19990;-80
2022/08/12 06:00:45;;;;;;;;;;;18.10;99.90;;;;;;5005097;28;19920;-79
2022/08/12 06:03:15;;;;;;;;;;;18.20;99.90;;;;;;4992155;28;19921;-80
2022/08/12 06:05:42;;;;;;;;;;;18.20;99.90;;;;;;5027653;28;20378;-83
2022/08/12 06:08:08;;;;;;;;;;;18.20;99.90;;;;;;5003799;28;20357;-82
2022/08/12 06:10:35;;;;;;;;;;;18.30;99.90;;;;;;4998800;28;19929;-78
2022/08/12 06:13:05;;;;;;;;;;;18.40;99.90;;;;;;4999461;28;19929;-80
2022/08/12 06:15:31;;;;;;;;;;;18.40;99.90;;;;;;5015120;28;19930;-80
2022/08/12 06:18:04;;;;;;;;;;;18.40;99.90;;;;;;5000743;28;20004;-79
2022/08/12 06:20:30;;;;;;;;;;;18.50;99.90;;;;;;5001926;28;19929;-82
2022/08/12 06:22:55;;;;;;;;;;;18.60;99.90;;;;;;5002702;28;19925;-81
2022/08/12 06:25:21;;;;;;;;;;;18.70;99.90;;;;;;4981020;28;19975;-82
2022/08/12 06:27:47;;;;;;;;;;;18.70;99.90;;;;;;5004019;28;19955;-80
2022/08/12 06:30:19;;;;;;;;;;;18.90;99.90;;;;;;5000904;28;19972;-84
2022/08/12 06:32:46;;;;;;;;;;;18.90;99.90;;;;;;5007817;28;19925;-83
2022/08/12 06:35:12;;;;;;;;;;;19.10;99.90;;;;;;5006991;28;19921;-79
2022/08/12 06:37:44;;;;;;;;;;;19.20;99.90;;;;;;4993163;28;19922;-83
2022/08/12 06:40:11;;;;;;;;;;;19.90;99.90;;;;;;5025249;28;19929;-80
2022/08/12 06:42:50;;;;;;;;;;;20.50;99.90;;;;;;5007156;28;20019;-80
2022/08/12 06:45:19;;;;;;;;;;;20.30;99.90;;;;;;4986815;28;19975;-80
2022/08/12 06:47:45;;;;;;;;;;;20.30;99.90;;;;;;5006251;28;20007;-80
2022/08/12 06:50:14;;;;;;;;;;;20.30;99.90;;;;;;5006856;28;19922;-82
2022/08/12 06:52:40;;;;;;;;;;;20.30;99.90;;;;;;4993112;28;19925;-79
2022/08/12 06:55:06;;;;;;;;;;;20.30;99.90;;;;;;5011653;28;19996;-82
2022/08/12 06:57:32;;;;;;;;;;;20.30;99.90;;;;;;4990564;28;20008;-79
2022/08/12 06:59:57;;;;;;;;;;;20.30;99.90;;;;;;5008466;28;19921;-80
2022/08/12 07:02:24;;;;;;;;;;;20.30;99.90;;;;;;5005605;28;19968;-79
2022/08/12 07:04:51;;;;;;;;;;;20.30;99.90;;;;;;5009014;28;19921;-79
2022/08/12 07:07:17;;;;;;;;;;;20.30;99.90;;;;;;5007601;28;20383;-79
2022/08/12 07:09:43;;;;;;;;;;;20.40;99.90;;;;;;5008633;28;19937;-80
2022/08/12 07:12:18;;;;;;;;;;;20.40;99.90;;;;;;5008724;28;20354;-79
2022/08/12 07:14:49;;;;;;;;;;;20.40;99.90;;;;;;5003289;28;20634;-80
2022/08/12 07:17:14;;;;;;;;;;;20.50;99.90;;;;;;5007661;28;19929;-80
2022/08/12 07:19:41;;;;;;;;;;;20.60;99.90;;;;;;5008534;28;19932;-80
2022/08/12 07:22:12;;;;;;;;;;;20.70;99.90;;;;;;5006762;28;20396;-79
2022/08/12 07:24:37;;;;;;;;;;;20.80;99.90;;;;;;5007208;28;19972;-79
2022/08/12 07:27:03;;;;;;;;;;;20.90;99.90;;;;;;5010349;28;19922;-79
2022/08/12 07:29:29;;;;;;;;;;;21.10;99.90;;;;;;4999763;28;20023;-80
2022/08/12 07:31:58;;;;;;;;;;;21.40;99.90;;;;;;5005323;28;19975;-80
2022/08/12 07:34:25;;;;;;;;;;;21.60;99.90;;;;;;4991034;28;19972;-80
2022/08/12 07:36:51;;;;;;;;;;;22.00;99.90;;;;;;5008019;28;20286;-79
2022/08/12 07:39:16;;;;;;;;;;;22.30;99.90;;;;;;5006768;28;19928;-80
2022/08/12 07:41:43;;;;;;;;;;;22.50;99.90;;;;;;5004967;28;19933;-79
2022/08/12 07:44:08;;;;;;;;;;;22.90;99.90;;;;;;5002722;28;19948;-81
2022/08/12 07:46:39;;;;;;;;;;;23.30;99.90;;;;;;4984012;28;19930;-80
2022/08/12 07:49:06;;;;;;;;;;;23.60;99.90;;;;;;5000390;28;19933;-80
2022/08/12 07:51:31;;;;;;;;;;;24.20;99.90;;;;;;4999723;28;19931;-82
2022/08/12 07:53:58;;;;;;;;;;;24.60;99.90;;;;;;4997768;28;19926;-80
2022/08/12 07:56:24;;;;;;;;;;;25.10;99.90;;;;;;5003715;28;19932;-79
2022/08/12 07:58:50;;;;;;;;;;;26.20;99.90;;;;;;4984705;28;19933;-80
2022/08/12 08:01:18;;;;;;;;;;;26.70;99.90;;;;;;4982469;28;19930;-80
2022/08/12 08:06:32;;;;;;;;;;;26.50;99.90;;;;;;5000727;28;19944;-85
2022/08/12 08:08:58;;;;;;;;;;;26.50;99.90;;;;;;5021017;28;20345;-81
2022/08/12 08:14:09;;;;;;;;;;;26.50;99.90;;;;;;5000694;28;20185;-82
2022/08/12 08:16:36;;;;;;;;;;;26.60;99.90;;;;;;5005948;28;19956;-82
2022/08/12 08:19:02;;;;;;;;;;;26.80;99.90;;;;;;5008892;28;19940;-83
2022/08/12 08:21:28;;;;;;;;;;;27.00;99.90;;;;;;5006385;28;20020;-83
2022/08/12 08:26:38;;;;;;;;;;;27.40;99.90;;;;;;5010102;28;19921;-83
2022/08/12 08:29:03;;;;;;;;;;;27.70;99.90;;;;;;5005160;28;20445;-83
2022/08/12 08:31:29;;;;;;;;;;;27.80;99.90;;;;;;5006111;28;19929;-83
2022/08/12 08:33:55;;;;;;;;;;;27.90;99.90;;;;;;4989916;28;19925;-84
2022/08/12 08:36:20;;;;;;;;;;;28.10;99.90;;;;;;5004887;28;19936;-82
2022/08/12 08:38:46;;;;;;;;;;;28.30;99.90;;;;;;5010928;28;20015;-85
2022/08/12 08:43:57;;;;;;;;;;;28.60;99.90;;;;;;5012900;28;19921;-81
2022/08/12 08:46:24;;;;;;;;;;;28.60;99.90;;;;;;4997766;28;20329;-83
2022/08/12 08:48:53;;;;;;;;;;;28.70;99.90;;;;;;4995211;28;20580;-80
2022/08/12 08:51:18;;;;;;;;;;;28.80;99.90;;;;;;5007018;28;20020;-84
2022/08/12 08:53:44;;;;;;;;;;;28.90;99.90;;;;;;5021749;28;19958;-83
2022/08/12 08:56:10;;;;;;;;;;;29.10;97.10;;;;;;5007029;28;19975;-82
2022/08/12 08:58:37;;;;;;;;;;;29.30;98.50;;;;;;4988065;28;20027;-84
2022/08/12 09:01:03;;;;;;;;;;;29.40;98.40;;;;;;5019342;28;20337;-80
2022/08/12 09:03:29;;;;;;;;;;;29.70;98.70;;;;;;4994207;28;19932;-81
2022/08/12 09:05:59;;;;;;;;;;;30.00;98.70;;;;;;5012697;28;22808;-82
2022/08/12 09:08:24;;;;;;;;;;;30.30;97.70;;;;;;5014112;28;19929;-84
2022/08/12 09:10:50;;;;;;;;;;;30.40;98.80;;;;;;5003820;28;19921;-83
2022/08/12 09:13:28;;;;;;;;;;;30.50;97.60;;;;;;5007731;28;19925;-81
2022/08/12 09:15:54;;;;;;;;;;;30.60;97.80;;;;;;4988007;28;20537;-85
2022/08/12 09:18:19;;;;;;;;;;;30.90;97.00;;;;;;4985185;28;20017;-83
2022/08/12 09:20:49;;;;;;;;;;;31.10;96.80;;;;;;4991209;28;19940;-83
2022/08/12 09:23:16;;;;;;;;;;;31.20;95.00;;;;;;5011121;28;20009;-81
2022/08/12 09:25:43;;;;;;;;;;;31.20;93.50;;;;;;5003981;28;19929;-81
2022/08/12 09:28:09;;;;;;;;;;;31.10;92.80;;;;;;5020131;28;19928;-81
2022/08/12 09:30:40;;;;;;;;;;;31.00;93.50;;;;;;5022336;28;19921;-84
2022/08/12 09:33:05;;;;;;;;;;;31.10;93.00;;;;;;4989774;28;19932;-84
2022/08/12 09:35:36;;;;;;;;;;;30.90;91.90;;;;;;5008152;28;20394;-83
2022/08/12 09:38:01;;;;;;;;;;;31.00;91.00;;;;;;5006465;28;19925;-83
2022/08/12 09:40:28;;;;;;;;;;;31.20;91.10;;;;;;4994995;28;19929;-82
2022/08/12 09:45:40;;;;;;;;;;;31.60;90.00;;;;;;5021084;28;19935;-87
2022/08/12 09:48:07;;;;;;;;;;;31.80;89.50;;;;;;5015075;28;20297;-87
2022/08/12 09:50:36;;;;;;;;;;;31.90;87.90;;;;;;4989927;28;19929;-81
2022/08/12 09:53:13;;;;;;;;;;;31.90;85.10;;;;;;5004062;28;19968;-85
2022/08/12 09:55:42;;;;;;;;;;;32.10;86.00;;;;;;5019122;28;19925;-85
2022/08/12 09:58:07;;;;;;;;;;;32.10;85.60;;;;;;5004797;28;21589;-84
2022/08/12 10:00:33;;;;;;;;;;;32.10;84.60;;;;;;5021430;28;19955;-83
2022/08/12 10:03:00;;;;;;;;;;;32.10;82.60;;;;;;4997853;28;20010;-82
2022/08/12 10:05:26;;;;;;;;;;;32.20;83.20;;;;;;5009533;28;19921;-85
2022/08/12 10:07:52;;;;;;;;;;;32.30;84.10;;;;;;5022899;28;19928;-85
2022/08/12 10:10:18;;;;;;;;;;;32.40;82.50;;;;;;5007055;28;19929;-81
2022/08/12 10:15:38;;;;;;;;;;;32.50;79.10;;;;;;5003604;28;19929;-80
2022/08/12 10:18:04;;;;;;;;;;;32.50;78.70;;;;;;5005063;28;19925;-85
2022/08/12 10:20:29;;;;;;;;;;;32.60;78.60;;;;;;5039204;28;19943;-81
2022/08/12 10:22:59;;;;;;;;;;;32.60;79.00;;;;;;5041674;28;19987;-82
2022/08/12 10:31:13;;;;;;;;;;;32.70;72.60;;;;;;4967888;28;20446;-88
2022/08/12 10:33:39;;;;;;;;;;;32.70;73.70;;;;;;4992474;28;20000;-84
2022/08/12 10:36:04;;;;;;;;;;;32.70;74.20;;;;;;5030541;28;19909;-83
2022/08/12 10:38:30;;;;;;;;;;;32.70;71.80;;;;;;5033226;28;19925;-84
2022/08/12 10:43:41;;;;;;;;;;;32.30;69.60;;;;;;5014393;28;20009;-85
2022/08/12 10:46:16;;;;;;;;;;;32.10;66.90;;;;;;4999364;28;19951;-86
2022/08/12 10:48:50;;;;;;;;;;;32.00;67.10;;;;;;5029428;28;19921;-82
2022/08/12 10:51:19;;;;;;;;;;;32.00;66.40;;;;;;4992222;28;20371;-82
2022/08/12 10:53:45;;;;;;;;;;;32.00;67.10;;;;;;4994479;28;19925;-86
2022/08/12 10:56:11;;;;;;;;;;;32.00;66.70;;;;;;4994391;28;20386;-84
2022/08/12 10:58:37;;;;;;;;;;;32.10;66.90;;;;;;5010533;28;19967;-82
2022/08/12 11:01:04;;;;;;;;;;;32.30;66.80;;;;;;5010569;28;19936;-84
2022/08/12 11:03:33;;;;;;;;;;;32.40;68.00;;;;;;5007557;28;19921;-85
2022/08/12 11:05:59;;;;;;;;;;;32.60;68.10;;;;;;5007635;28;19932;-85
2022/08/12 11:08:26;;;;;;;;;;;32.50;66.60;;;;;;5009225;28;19925;-82
2022/08/12 11:10:52;;;;;;;;;;;32.50;65.60;;;;;;5027147;28;19929;-85
2022/08/12 11:13:18;;;;;;;;;;;32.40;65.70;;;;;;5010173;28;19939;-84
2022/08/12 11:15:44;;;;;;;;;;;32.40;67.90;;;;;;4991118;28;19925;-83
2022/08/12 11:18:10;;;;;;;;;;;32.50;65.10;;;;;;4999612;28;19987;-82
2022/08/12 11:20:36;;;;;;;;;;;32.60;66.10;;;;;;5030155;28;19925;-86
2022/08/12 11:23:02;;;;;;;;;;;32.60;66.10;;;;;;5018354;28;19928;-82
2022/08/12 11:25:27;;;;;;;;;;;32.60;65.90;;;;;;5008253;28;19924;-84
2022/08/12 11:27:53;;;;;;;;;;;32.60;65.10;;;;;;5027398;28;19921;-87
2022/08/12 11:30:19;;;;;;;;;;;32.70;64.00;;;;;;4991152;28;19936;-82
2022/08/12 11:32:44;;;;;;;;;;;32.70;65.50;;;;;;5011972;28;20287;-85
2022/08/12 11:35:10;;;;;;;;;;;32.70;64.20;;;;;;5014261;28;19924;-84
2022/08/12 11:37:37;;;;;;;;;;;32.70;66.30;;;;;;5024476;28;19925;-85
2022/08/12 11:40:04;;;;;;;;;;;32.80;65.90;;;;;;4998304;28;19928;-85
2022/08/12 11:42:29;;;;;;;;;;;32.90;65.50;;;;;;5021245;28;19980;-86
2022/08/12 11:44:55;;;;;;;;;;;33.00;63.50;;;;;;5016285;28;19921;-86
2022/08/12 11:47:20;;;;;;;;;;;33.10;64.40;;;;;;4994491;28;20045;-85
2022/08/12 11:49:46;;;;;;;;;;;33.10;64.20;;;;;;5015331;28;20422;-88
2022/08/12 11:52:11;;;;;;;;;;;33.00;63.30;;;;;;5014759;28;19929;-86
2022/08/12 11:54:37;;;;;;;;;;;32.90;61.90;;;;;;5021937;28;19926;-83
2022/08/12 11:57:03;;;;;;;;;;;32.80;62.80;;;;;;5017083;28;20055;-84
2022/08/12 11:59:30;;;;;;;;;;;32.70;61.40;;;;;;5013098;28;19968;-85
2022/08/12 12:01:55;;;;;;;;;;;32.70;62.20;;;;;;5002903;28;19967;-84
2022/08/12 12:04:21;;;;;;;;;;;32.80;63.40;;;;;;5020536;28;19924;-85
2022/08/12 12:06:46;;;;;;;;;;;32.90;63.40;;;;;;5016335;28;20985;-83
2022/08/12 12:09:12;;;;;;;;;;;32.90;60.90;;;;;;5024725;28;19921;-83
2022/08/12 12:11:37;;;;;;;;;;;32.80;61.60;;;;;;5020702;28;20401;-83
2022/08/12 12:14:03;;;;;;;;;;;32.70;62.40;;;;;;5016877;28;20294;-85
2022/08/12 12:16:29;;;;;;;;;;;32.50;59.90;;;;;;5027409;28;19929;-85
2022/08/12 12:18:54;;;;;;;;;;;32.60;61.90;;;;;;5013108;28;19924;-85
2022/08/12 12:21:20;;;;;;;;;;;32.60;62.80;;;;;;4999633;28;20374;-86
2022/08/12 12:23:45;;;;;;;;;;;32.80;63.60;;;;;;5017617;28;19929;-85
2022/08/12 12:26:11;;;;;;;;;;;32.80;60.90;;;;;;5020125;28;19929;-82
2022/08/12 12:28:37;;;;;;;;;;;32.80;61.20;;;;;;5016414;28;20016;-82
2022/08/12 12:31:03;;;;;;;;;;;32.90;61.10;;;;;;5023721;28;19950;-86
2022/08/12 12:33:29;;;;;;;;;;;32.90;62.50;;;;;;5019285;28;19925;-86
2022/08/12 12:35:55;;;;;;;;;;;33.00;62.30;;;;;;5016047;28;19924;-83
2022/08/12 12:38:20;;;;;;;;;;;33.00;61.20;;;;;;4996014;28;19968;-86
2022/08/12 12:40:47;;;;;;;;;;;32.90;60.90;;;;;;5006355;28;19925;-84
2022/08/12 12:43:13;;;;;;;;;;;32.80;60.60;;;;;;5009727;28;19921;-84
2022/08/12 12:45:39;;;;;;;;;;;32.70;60.10;;;;;;5025391;28;20024;-85
2022/08/12 12:48:06;;;;;;;;;;;32.60;61.20;;;;;;5025878;28;20023;-86
2022/08/12 12:50:38;;;;;;;;;;;32.60;59.80;;;;;;5021539;28;20386;-84
2022/08/12 12:53:04;;;;;;;;;;;32.60;60.50;;;;;;5015615;28;19925;-82
2022/08/12 12:55:34;;;;;;;;;;;32.50;60.90;;;;;;5015138;28;19925;-82
2022/08/12 12:58:03;;;;;;;;;;;32.40;60.30;;;;;;4997259;28;20491;-83
2022/08/12 13:00:31;;;;;;;;;;;32.20;60.40;;;;;;5029153;28;19928;-83
2022/08/12 13:02:57;;;;;;;;;;;32.20;61.40;;;;;;4992939;28;19955;-88
2022/08/12 13:05:28;;;;;;;;;;;32.30;61.60;;;;;;5026796;28;19944;-86
2022/08/12 13:07:59;;;;;;;;;;;32.40;62.90;;;;;;5013694;28;20050;-84
2022/08/12 13:10:25;;;;;;;;;;;32.50;61.80;;;;;;5005610;28;20337;-86
2022/08/12 13:12:52;;;;;;;;;;;32.50;60.40;;;;;;5027808;28;19921;-85
2022/08/12 13:15:17;;;;;;;;;;;32.50;60.80;;;;;;5010525;28;19932;-84
2022/08/12 13:17:46;;;;;;;;;;;32.40;61.10;;;;;;5013836;28;19921;-86
2022/08/12 13:20:13;;;;;;;;;;;32.40;61.00;;;;;;5012536;28;19921;-82
2022/08/12 13:22:39;;;;;;;;;;;32.40;60.50;;;;;;4996211;28;20440;-83
2022/08/12 13:25:04;;;;;;;;;;;32.40;60.50;;;;;;5015447;28;19929;-86
2022/08/12 13:27:34;;;;;;;;;;;32.30;60.00;;;;;;4998742;28;20759;-86
2022/08/12 13:30:02;;;;;;;;;;;32.30;60.30;;;;;;5020138;28;19940;-83
2022/08/12 13:32:28;;;;;;;;;;;32.20;60.00;;;;;;5011422;28;19921;-85
2022/08/12 13:34:58;;;;;;;;;;;32.10;60.40;;;;;;5011927;28;20030;-86
2022/08/12 13:37:24;;;;;;;;;;;32.10;61.40;;;;;;5027232;28;19935;-85
2022/08/12 13:39:53;;;;;;;;;;;32.20;62.20;;;;;;5007179;28;19925;-84
2022/08/12 13:42:21;;;;;;;;;;;32.40;61.90;;;;;;5007897;28;20271;-85
2022/08/12 13:44:48;;;;;;;;;;;32.30;60.50;;;;;;4995388;28;19921;-84
2022/08/12 13:47:13;;;;;;;;;;;32.40;61.30;;;;;;5010695;28;19921;-86
2022/08/12 13:49:39;;;;;;;;;;;32.40;59.70;;;;;;5011273;28;19931;-83
2022/08/12 13:52:04;;;;;;;;;;;32.40;60.00;;;;;;5007681;28;20015;-79
2022/08/12 13:54:31;;;;;;;;;;;32.30;60.30;;;;;;5027955;28;19921;-87
2022/08/12 13:56:57;;;;;;;;;;;32.20;59.30;;;;;;5008771;28;19921;-86
2022/08/12 13:59:22;;;;;;;;;;;32.10;58.40;;;;;;5029130;28;19920;-85
2022/08/12 14:01:50;;;;;;;;;;;32.10;60.00;;;;;;5029075;28;19928;-83
2022/08/12 14:04:16;;;;;;;;;;;32.00;60.60;;;;;;5011883;28;19929;-87
2022/08/12 14:06:42;;;;;;;;;;;32.00;59.70;;;;;;5012123;28;19927;-81
2022/08/12 14:09:08;;;;;;;;;;;31.90;58.90;;;;;;5021422;28;19984;-86
2022/08/12 14:11:34;;;;;;;;;;;31.70;59.20;;;;;;5035175;28;20118;-80
2022/08/12 14:13:59;;;;;;;;;;;31.70;59.80;;;;;;5037154;28;19945;-85
2022/08/12 14:16:26;;;;;;;;;;;31.60;59.40;;;;;;5002763;28;19927;-85
2022/08/12 14:18:52;;;;;;;;;;;31.50;58.80;;;;;;5012215;28;19921;-83
2022/08/12 14:21:19;;;;;;;;;;;31.50;59.70;;;;;;5012375;28;19928;-86
2022/08/12 14:23:51;;;;;;;;;;;31.50;60.30;;;;;;5029382;28;20275;-85
2022/08/12 14:26:19;;;;;;;;;;;31.50;59.40;;;;;;5030066;28;19929;-87
2022/08/12 14:28:45;;;;;;;;;;;31.50;59.90;;;;;;5011658;28;20316;-87
2022/08/12 14:31:12;;;;;;;;;;;31.40;60.00;;;;;;4995676;28;20294;-84
2022/08/12 14:33:46;;;;;;;;;;;31.40;59.90;;;;;;5012459;28;19921;-89
2022/08/12 14:36:11;;;;;;;;;;;31.40;60.80;;;;;;5009447;28;20313;-85
2022/08/12 14:38:39;;;;;;;;;;;31.30;62.80;;;;;;5009740;28;19946;-83
2022/08/12 14:41:09;;;;;;;;;;;31.20;63.00;;;;;;5027047;28;19925;-85
2022/08/12 14:43:38;;;;;;;;;;;31.20;62.90;;;;;;4993212;28;20696;-81
2022/08/12 14:46:04;;;;;;;;;;;31.10;63.30;;;;;;5014497;28;20016;-86
2022/08/12 14:48:30;;;;;;;;;;;31.00;65.50;;;;;;5005632;28;20413;-86
2022/08/12 14:50:56;;;;;;;;;;;30.90;66.30;;;;;;5013368;28;20004;-85
2022/08/12 14:53:22;;;;;;;;;;;30.80;67.10;;;;;;5000023;28;19925;-86
2022/08/12 14:55:48;;;;;;;;;;;30.70;67.70;;;;;;5011831;28;19968;-83
2022/08/12 14:58:17;;;;;;;;;;;30.60;67.00;;;;;;5024385;28;19928;-83
2022/08/12 15:03:27;;;;;;;;;;;30.40;67.80;;;;;;5009371;28;19963;-88
2022/08/12 15:05:55;;;;;;;;;;;30.30;67.90;;;;;;4996788;28;20284;-84
2022/08/12 15:08:23;;;;;;;;;;;30.30;67.90;;;;;;5010785;28;19975;-84
2022/08/12 15:10:48;;;;;;;;;;;30.20;67.80;;;;;;5025106;28;19925;-81
2022/08/12 15:13:17;;;;;;;;;;;30.20;68.20;;;;;;5020776;28;19925;-86
2022/08/12 15:15:44;;;;;;;;;;;30.10;67.80;;;;;;5025130;28;19929;-87
2022/08/12 15:18:10;;;;;;;;;;;30.10;67.60;;;;;;5003816;28;19929;-86
2022/08/12 15:20:36;;;;;;;;;;;30.10;68.30;;;;;;5016418;28;20503;-84
2022/08/12 15:23:02;;;;;;;;;;;30.00;67.80;;;;;;5023808;28;19968;-86
2022/08/12 15:25:29;;;;;;;;;;;29.90;67.40;;;;;;4996612;28;19921;-87
2022/08/12 15:27:55;;;;;;;;;;;29.80;68.10;;;;;;5015169;28;19929;-86
2022/08/12 15:30:23;;;;;;;;;;;29.80;67.70;;;;;;5019046;28;20321;-85
2022/08/12 15:32:49;;;;;;;;;;;29.70;68.10;;;;;;5018847;28;19936;-87
2022/08/12 15:35:15;;;;;;;;;;;29.70;68.70;;;;;;4998667;28;20521;-86
2022/08/12 15:37:41;;;;;;;;;;;29.70;68.40;;;;;;5016683;28;19921;-85
2022/08/12 15:40:07;;;;;;;;;;;29.70;68.10;;;;;;4999896;28;19967;-86
2022/08/12 15:42:34;;;;;;;;;;;29.70;68.20;;;;;;5000552;28;19928;-85
2022/08/12 15:45:00;;;;;;;;;;;29.70;68.00;;;;;;4996600;28;20292;-85
2022/08/12 15:47:27;;;;;;;;;;;29.50;67.90;;;;;;5013132;28;19925;-85
2022/08/12 15:49:53;;;;;;;;;;;29.50;68.60;;;;;;5019263;28;20015;-83
2022/08/12 15:52:26;;;;;;;;;;;29.50;68.90;;;;;;4995636;28;19925;-84
2022/08/12 15:54:51;;;;;;;;;;;29.40;68.50;;;;;;5025933;28;19928;-85
2022/08/12 15:57:18;;;;;;;;;;;29.40;68.80;;;;;;5021825;28;19929;-82
2022/08/12 15:59:45;;;;;;;;;;;29.30;69.20;;;;;;5004966;28;19921;-87
2022/08/12 16:02:13;;;;;;;;;;;29.30;69.40;;;;;;5021115;28;19936;-86
2022/08/12 16:04:44;;;;;;;;;;;29.20;69.50;;;;;;5025491;28;19979;-87
2022/08/12 16:07:10;;;;;;;;;;;29.20;69.50;;;;;;5009583;28;19924;-84